Time;durP1;ratioP1;P1;durP2;ratioP2;P2;SDS_P1;SDS_P2;PMS_P1;PMS_P2;Temp;Humidity;BMP_temperature;BMP_pressure;BME280_temperature;BME280_humidity;BME280_pressure;Samples;Min_cycle;Max_cycle;Signal;HPM_P1;HPM_P2
2021/06/15 00:00:45;;;;;;;3.30;3.00;;;16.90;63.10;;;;;;4997481;28;20045;-67
2021/06/15 00:03:11;;;;;;;4.75;2.80;;;16.90;63.20;;;;;;4997741;28;20088;-67
2021/06/15 00:05:36;;;;;;;4.15;3.00;;;16.80;63.20;;;;;;4994419;28;20038;-68
2021/06/15 00:08:03;;;;;;;4.72;2.95;;;16.80;63.60;;;;;;4998097;28;20111;-67
2021/06/15 00:10:28;;;;;;;3.10;2.90;;;16.70;63.50;;;;;;4995117;28;20048;-67
2021/06/15 00:12:55;;;;;;;3.80;3.00;;;16.70;63.80;;;;;;4994661;28;20026;-68
2021/06/15 00:15:22;;;;;;;3.80;2.92;;;16.60;64.00;;;;;;4994994;28;20037;-67
2021/06/15 00:17:48;;;;;;;3.30;3.00;;;16.60;64.10;;;;;;4998111;28;20044;-69
2021/06/15 00:20:15;;;;;;;3.08;2.80;;;16.60;64.30;;;;;;4997308;28;20965;-67
2021/06/15 00:22:42;;;;;;;2.95;2.75;;;16.50;64.50;;;;;;4997104;28;20030;-66
2021/06/15 00:25:09;;;;;;;3.63;3.00;;;16.50;64.70;;;;;;4993400;28;20108;-68
2021/06/15 00:27:34;;;;;;;3.53;2.95;;;16.50;64.70;;;;;;4995523;28;20038;-67
2021/06/15 00:30:01;;;;;;;3.53;3.10;;;16.40;64.60;;;;;;4995385;28;20042;-68
2021/06/15 00:32:27;;;;;;;5.22;3.42;;;16.40;64.80;;;;;;4996276;28;20563;-67
2021/06/15 00:34:52;;;;;;;7.28;3.33;;;16.30;64.90;;;;;;4996984;28;20042;-67
2021/06/15 00:37:18;;;;;;;4.30;2.97;;;16.30;65.00;;;;;;4994265;28;20045;-67
2021/06/15 00:39:44;;;;;;;7.20;3.05;;;16.30;65.10;;;;;;4995637;28;20621;-68
2021/06/15 00:42:10;;;;;;;5.88;3.42;;;16.20;65.10;;;;;;4995778;28;20125;-67
2021/06/15 00:44:36;;;;;;;4.40;2.92;;;16.20;65.10;;;;;;4993517;28;20464;-68
2021/06/15 00:47:03;;;;;;;3.60;3.30;;;16.10;65.20;;;;;;4997556;28;20459;-68
2021/06/15 00:49:34;;;;;;;4.25;3.20;;;16.10;65.50;;;;;;4995592;28;20057;-68
2021/06/15 00:52:00;;;;;;;4.47;3.30;;;16.00;65.90;;;;;;4997848;28;20512;-67
2021/06/15 00:54:26;;;;;;;4.53;3.33;;;16.00;65.60;;;;;;4994810;28;20128;-67
2021/06/15 00:56:53;;;;;;;3.72;2.95;;;16.00;65.70;;;;;;4995156;28;20132;-67
2021/06/15 00:59:18;;;;;;;3.80;3.50;;;15.90;66.70;;;;;;4995985;28;20513;-67
2021/06/15 01:01:44;;;;;;;3.47;3.08;;;15.90;66.00;;;;;;4996635;28;20046;-67
2021/06/15 01:04:11;;;;;;;5.40;3.25;;;15.80;66.00;;;;;;5005275;28;20049;-67
2021/06/15 01:06:55;;;;;;;6.50;3.40;;;15.80;66.20;;;;;;4995483;28;20528;-68
2021/06/15 01:09:20;;;;;;;3.58;3.28;;;15.80;67.60;;;;;;4995846;28;20035;-67
2021/06/15 01:11:57;;;;;;;4.43;3.15;;;15.80;66.20;;;;;;4993910;28;20038;-67
2021/06/15 01:14:53;;;;;;;5.22;3.17;;;15.70;67.00;;;;;;4995027;28;20065;-67
2021/06/15 01:17:27;;;;;;;4.18;3.03;;;15.70;66.80;;;;;;4969197;28;20031;-67
2021/06/15 01:20:07;;;;;;;3.47;2.97;;;15.70;66.40;;;;;;4996795;28;20409;-68
2021/06/15 01:22:44;;;;;;;3.38;2.90;;;15.70;67.40;;;;;;5006872;28;20033;-67
2021/06/15 01:25:35;;;;;;;3.05;2.80;;;15.80;67.10;;;;;;4999617;28;20034;-68
2021/06/15 01:28:02;;;;;;;3.47;3.17;;;15.70;66.60;;;;;;4997015;28;20041;-67
2021/06/15 01:30:54;;;;;;;3.50;2.97;;;15.80;66.00;;;;;;4996963;28;20509;-67
2021/06/15 01:33:22;;;;;;;4.10;2.92;;;15.80;67.30;;;;;;4981447;28;20038;-67
2021/06/15 01:35:49;;;;;;;3.92;3.30;;;15.80;65.90;;;;;;4996890;28;20068;-67
2021/06/15 01:38:18;;;;;;;5.70;3.03;;;15.80;66.00;;;;;;4994778;28;20713;-68
2021/06/15 01:40:51;;;;;;;3.60;3.20;;;15.80;66.10;;;;;;4996125;28;21990;-67
2021/06/15 01:43:24;;;;;;;3.90;3.50;;;15.80;66.60;;;;;;4994253;28;20509;-68
2021/06/15 01:45:53;;;;;;;4.15;3.75;;;15.70;66.70;;;;;;5002661;28;20501;-67
2021/06/15 01:48:56;;;;;;;4.38;3.55;;;15.60;66.60;;;;;;4999901;28;20069;-67
2021/06/15 01:51:23;;;;;;;4.18;3.15;;;15.60;67.80;;;;;;4995378;28;20096;-67
2021/06/15 01:53:58;;;;;;;6.47;3.70;;;15.50;66.40;;;;;;4998233;28;20062;-66
2021/06/15 01:56:26;;;;;;;5.90;3.70;;;15.50;67.20;;;;;;4998081;28;20066;-67
2021/06/15 01:58:56;;;;;;;5.07;3.80;;;15.40;67.90;;;;;;4997727;28;20038;-68
2021/06/15 02:01:22;;;;;;;3.95;3.47;;;15.30;67.30;;;;;;5001340;28;20125;-67
2021/06/15 02:03:51;;;;;;;3.53;3.13;;;15.30;67.00;;;;;;4999847;28;20048;-67
2021/06/15 02:06:21;;;;;;;4.10;3.42;;;15.30;67.20;;;;;;4996519;28;20040;-67
2021/06/15 02:08:50;;;;;;;3.55;3.25;;;15.30;67.40;;;;;;4999615;28;20030;-67
2021/06/15 02:11:17;;;;;;;3.63;3.30;;;15.30;67.60;;;;;;4994360;28;20118;-67
2021/06/15 02:13:45;;;;;;;3.83;3.38;;;15.30;67.40;;;;;;5000201;28;20034;-67
2021/06/15 02:16:11;;;;;;;4.40;3.47;;;15.20;67.40;;;;;;4995718;28;20042;-67
2021/06/15 02:18:40;;;;;;;3.60;3.30;;;15.20;67.40;;;;;;4998511;28;20026;-67
2021/06/15 02:21:09;;;;;;;3.92;3.38;;;15.20;67.50;;;;;;4998981;28;20126;-67
2021/06/15 02:23:36;;;;;;;3.80;3.30;;;15.20;67.40;;;;;;4996802;28;20034;-67
2021/06/15 02:26:08;;;;;;;4.75;3.15;;;15.20;67.30;;;;;;4998812;28;20665;-67
2021/06/15 02:28:35;;;;;;;5.03;3.17;;;15.20;67.60;;;;;;5000340;28;20037;-67
2021/06/15 02:31:02;;;;;;;5.15;3.55;;;15.20;67.30;;;;;;4995758;28;20101;-67
2021/06/15 02:33:38;;;;;;;3.92;3.60;;;15.20;67.40;;;;;;4995916;28;20062;-67
2021/06/15 02:36:27;;;;;;;4.50;4.10;;;15.20;67.60;;;;;;4999184;28;20034;-66
2021/06/15 02:39:01;;;;;;;3.90;3.60;;;15.20;67.80;;;;;;4998783;28;20617;-67
2021/06/15 02:41:32;;;;;;;4.00;3.65;;;15.10;68.10;;;;;;5002559;28;20530;-67
2021/06/15 02:44:01;;;;;;;5.38;3.58;;;15.10;67.90;;;;;;4999536;28;20718;-67
2021/06/15 02:46:29;;;;;;;3.92;3.58;;;15.00;67.80;;;;;;4997184;28;20041;-67
2021/06/15 02:48:58;;;;;;;5.18;3.95;;;15.00;68.10;;;;;;4998195;28;20034;-67
2021/06/15 02:51:28;;;;;;;4.43;3.70;;;15.00;69.20;;;;;;4996478;28;20026;-67
2021/06/15 02:54:12;;;;;;;5.43;3.63;;;14.90;68.70;;;;;;5000534;28;20096;-67
2021/06/15 02:56:43;;;;;;;9.38;4.15;;;14.90;69.20;;;;;;4995268;28;20062;-67
2021/06/15 02:59:09;;;;;;;5.18;3.65;;;14.80;68.50;;;;;;5000676;28;20532;-67
2021/06/15 03:01:35;;;;;;;5.30;3.90;;;14.80;68.60;;;;;;4997780;28;20065;-67
2021/06/15 03:04:05;;;;;;;4.50;4.10;;;14.80;68.60;;;;;;4998060;28;20143;-67
2021/06/15 03:06:30;;;;;;;5.00;3.88;;;14.70;68.80;;;;;;5001663;28;20069;-67
2021/06/15 03:08:57;;;;;;;4.60;4.20;;;14.70;68.60;;;;;;4999869;28;20062;-67
2021/06/15 03:11:26;;;;;;;5.25;3.85;;;14.70;69.00;;;;;;4999403;28;20031;-68
2021/06/15 03:14:05;;;;;;;4.88;3.72;;;14.60;69.10;;;;;;4999099;28;20026;-68
2021/06/15 03:16:32;;;;;;;5.10;3.88;;;14.60;70.00;;;;;;4997195;28;20082;-67
2021/06/15 03:19:08;;;;;;;4.45;4.05;;;14.60;69.20;;;;;;4995690;28;20093;-67
2021/06/15 03:21:44;;;;;;;4.20;3.80;;;14.60;70.20;;;;;;4998071;28;20041;-67
2021/06/15 03:24:21;;;;;;;5.45;4.15;;;14.60;69.60;;;;;;4995509;28;20053;-67
2021/06/15 03:26:58;;;;;;;5.07;4.15;;;14.60;69.80;;;;;;4998684;28;20026;-67
2021/06/15 03:29:27;;;;;;;4.47;3.83;;;14.60;70.00;;;;;;4998398;28;20409;-67
2021/06/15 03:31:59;;;;;;;4.70;4.00;;;14.50;69.30;;;;;;4997526;28;20030;-67
2021/06/15 03:34:29;;;;;;;3.90;3.60;;;14.50;69.30;;;;;;4998651;28;20035;-67
2021/06/15 03:36:57;;;;;;;4.25;3.88;;;14.50;69.70;;;;;;4994020;28;20539;-67
2021/06/15 03:39:24;;;;;;;4.57;3.90;;;14.50;69.70;;;;;;4995641;28;20033;-67
2021/06/15 03:41:57;;;;;;;5.53;4.15;;;14.50;69.70;;;;;;4994313;28;20047;-67
2021/06/15 03:44:23;;;;;;;6.93;3.78;;;14.50;70.30;;;;;;4995637;28;20121;-67
2021/06/15 03:46:52;;;;;;;6.20;4.60;;;14.50;69.70;;;;;;4993616;28;20175;-67
2021/06/15 03:49:20;;;;;;;7.72;5.22;;;14.40;69.90;;;;;;4998045;28;20033;-67
2021/06/15 03:51:52;;;;;;;6.18;4.35;;;14.40;69.90;;;;;;4996571;28;20104;-67
2021/06/15 03:54:20;;;;;;;5.50;4.40;;;14.40;70.60;;;;;;4997078;28;20497;-67
2021/06/15 03:56:51;;;;;;;6.30;4.68;;;14.40;70.20;;;;;;4998537;28;20038;-67
2021/06/15 03:59:21;;;;;;;6.80;4.05;;;14.40;70.40;;;;;;4999751;28;20468;-67
2021/06/15 04:01:50;;;;;;;4.25;3.85;;;14.40;70.30;;;;;;4999275;28;20034;-67
2021/06/15 04:04:17;;;;;;;4.38;3.92;;;14.40;70.00;;;;;;4993167;28;20034;-67
2021/06/15 04:06:51;;;;;;;6.45;4.20;;;14.50;70.20;;;;;;4992121;28;20084;-67
2021/06/15 04:09:22;;;;;;;4.95;3.95;;;14.50;70.40;;;;;;4996610;28;20254;-68
2021/06/15 04:11:51;;;;;;;6.05;4.20;;;14.50;70.60;;;;;;4993379;28;20061;-67
2021/06/15 04:14:18;;;;;;;4.85;4.40;;;14.50;70.30;;;;;;4995849;28;20038;-68
2021/06/15 04:16:44;;;;;;;4.88;4.30;;;14.50;70.40;;;;;;4996012;28;20112;-67
2021/06/15 04:19:26;;;;;;;4.80;4.30;;;14.50;70.50;;;;;;4995976;28;20030;-67
2021/06/15 04:21:54;;;;;;;5.57;4.25;;;14.50;71.10;;;;;;4992423;28;20044;-67
2021/06/15 04:24:25;;;;;;;5.10;3.90;;;14.50;70.70;;;;;;4995253;28;20121;-67
2021/06/15 04:26:53;;;;;;;5.60;4.30;;;14.50;70.90;;;;;;4998377;28;20468;-67
2021/06/15 04:29:18;;;;;;;4.72;4.18;;;14.50;70.90;;;;;;4997886;28;20038;-67
2021/06/15 04:31:46;;;;;;;7.13;4.65;;;14.40;71.10;;;;;;4997497;28;20022;-67
2021/06/15 04:34:14;;;;;;;7.38;4.40;;;14.40;71.50;;;;;;4998097;28;20540;-67
2021/06/15 04:36:43;;;;;;;8.25;4.30;;;14.40;71.80;;;;;;4996695;28;20505;-67
2021/06/15 04:39:20;;;;;;;5.90;4.53;;;14.50;71.80;;;;;;4999434;28;20413;-67
2021/06/15 04:41:56;;;;;;;5.28;4.70;;;14.50;72.70;;;;;;4997235;28;20038;-67
2021/06/15 04:44:42;;;;;;;8.75;4.85;;;14.50;72.50;;;;;;4995004;28;20183;-67
2021/06/15 04:47:24;;;;;;;6.72;4.68;;;14.50;72.60;;;;;;4999212;28;20035;-67
2021/06/15 04:50:05;;;;;;;6.25;4.88;;;14.60;72.60;;;;;;4998031;28;20045;-67
2021/06/15 04:52:32;;;;;;;6.00;4.53;;;14.60;73.30;;;;;;4994833;28;20136;-67
2021/06/15 04:55:00;;;;;;;5.60;5.10;;;14.70;72.30;;;;;;4999003;28;20317;-67
2021/06/15 04:57:29;;;;;;;6.25;4.88;;;14.70;72.50;;;;;;4996637;28;20057;-67
2021/06/15 05:00:01;;;;;;;6.53;4.78;;;14.70;72.60;;;;;;5000167;28;20026;-67
2021/06/15 05:02:27;;;;;;;6.53;4.70;;;14.80;73.20;;;;;;5002565;28;20109;-67
2021/06/15 05:04:54;;;;;;;11.60;5.10;;;14.80;73.10;;;;;;5008154;28;20085;-67
2021/06/15 05:07:22;;;;;;;8.63;5.35;;;14.90;73.30;;;;;;5003274;28;20107;-68
2021/06/15 05:09:51;;;;;;;5.60;4.97;;;15.00;73.50;;;;;;5003012;28;20049;-67
2021/06/15 05:12:19;;;;;;;6.43;4.93;;;15.00;74.70;;;;;;4995983;28;20487;-67
2021/06/15 05:14:45;;;;;;;5.82;4.97;;;15.10;73.30;;;;;;4999021;28;20030;-67
2021/06/15 05:17:13;;;;;;;9.77;5.38;;;15.20;73.10;;;;;;5001804;28;20526;-67
2021/06/15 05:19:42;;;;;;;7.80;5.07;;;15.30;73.30;;;;;;5002494;28;20581;-67
2021/06/15 05:22:22;;;;;;;9.45;5.47;;;15.40;73.30;;;;;;5001249;28;20041;-67
2021/06/15 05:24:51;;;;;;;7.90;5.38;;;15.50;74.00;;;;;;5000277;28;20506;-67
2021/06/15 05:27:19;;;;;;;8.73;4.85;;;15.70;73.10;;;;;;5002084;28;20524;-67
2021/06/15 05:29:45;;;;;;;5.47;4.97;;;15.70;72.90;;;;;;5000174;28;20062;-67
2021/06/15 05:32:11;;;;;;;6.78;5.47;;;15.90;72.50;;;;;;5000957;28;20153;-67
2021/06/15 05:34:37;;;;;;;6.20;5.45;;;16.00;72.60;;;;;;5001604;28;20042;-67
2021/06/15 05:37:05;;;;;;;8.95;5.63;;;16.10;72.30;;;;;;5001514;28;20045;-67
2021/06/15 05:39:32;;;;;;;8.10;5.82;;;16.20;72.30;;;;;;5000773;28;20513;-66
2021/06/15 05:41:58;;;;;;;7.30;5.57;;;16.30;71.80;;;;;;4999369;28;20453;-67
2021/06/15 05:44:24;;;;;;;5.75;4.97;;;16.50;71.40;;;;;;4998149;28;20493;-67
2021/06/15 05:46:50;;;;;;;5.82;5.25;;;16.60;71.10;;;;;;4997976;28;20362;-67
2021/06/15 05:49:16;;;;;;;9.82;5.53;;;16.70;70.40;;;;;;5008120;28;20026;-67
2021/06/15 05:51:42;;;;;;;7.50;5.97;;;16.80;70.60;;;;;;5000545;28;20045;-67
2021/06/15 05:54:08;;;;;;;8.65;5.78;;;16.90;71.20;;;;;;4997773;28;20131;-67
2021/06/15 05:56:34;;;;;;;6.88;5.68;;;17.10;71.00;;;;;;5000367;28;20030;-67
2021/06/15 05:59:00;;;;;;;6.85;5.30;;;17.20;70.90;;;;;;5000596;28;20056;-67
2021/06/15 06:01:26;;;;;;;7.80;5.70;;;17.30;70.40;;;;;;4999518;28;20139;-67
2021/06/15 06:04:13;;;;;;;8.52;5.78;;;17.40;70.30;;;;;;5001625;28;20041;-68
2021/06/15 06:09:23;;;;;;;8.40;5.73;;;17.60;69.90;;;;;;4995270;28;20091;-67
2021/06/15 06:11:49;;;;;;;8.20;5.78;;;17.80;69.90;;;;;;4996767;28;20700;-67
2021/06/15 06:14:15;;;;;;;9.00;5.43;;;17.90;70.30;;;;;;4999967;28;20045;-67
2021/06/15 06:16:42;;;;;;;6.75;5.95;;;18.00;69.60;;;;;;4999487;28;20046;-67
2021/06/15 06:19:12;;;;;;;6.65;5.53;;;18.10;69.30;;;;;;4999541;28;20413;-68
2021/06/15 06:21:38;;;;;;;10.18;6.20;;;18.20;69.20;;;;;;5001537;28;20489;-67
2021/06/15 06:24:06;;;;;;;11.48;5.90;;;18.30;68.70;;;;;;4997481;28;20500;-67
2021/06/15 06:26:33;;;;;;;10.88;5.78;;;18.40;68.40;;;;;;5000473;28;20038;-67
2021/06/15 06:28:58;;;;;;;10.02;6.45;;;18.50;68.50;;;;;;5015241;28;20590;-67
2021/06/15 06:31:25;;;;;;;8.40;5.75;;;18.70;68.10;;;;;;5000981;28;20034;-68
2021/06/15 06:33:50;;;;;;;9.13;6.22;;;18.70;67.80;;;;;;4998165;28;20037;-67
2021/06/15 06:36:16;;;;;;;7.63;5.75;;;18.90;67.80;;;;;;4999044;28;20092;-67
2021/06/15 06:38:48;;;;;;;6.78;5.80;;;19.00;68.00;;;;;;5000307;28;20120;-68
2021/06/15 06:41:21;;;;;;;7.03;6.28;;;19.10;67.70;;;;;;4997429;28;20458;-67
2021/06/15 06:43:47;;;;;;;6.97;6.28;;;19.20;67.30;;;;;;4999758;28;20034;-68
2021/06/15 06:46:13;;;;;;;6.85;6.05;;;19.30;66.70;;;;;;5000351;28;20506;-67
2021/06/15 06:48:39;;;;;;;6.45;5.75;;;19.40;66.50;;;;;;5005613;28;20112;-67
2021/06/15 06:51:05;;;;;;;7.50;6.00;;;19.50;66.40;;;;;;4996458;28;20049;-68
2021/06/15 06:53:34;;;;;;;7.30;5.70;;;19.50;66.40;;;;;;5000228;28;20505;-67
2021/06/15 06:56:00;;;;;;;7.97;6.20;;;19.60;66.40;;;;;;5004497;28;20581;-68
2021/06/15 06:58:26;;;;;;;7.38;6.22;;;19.70;66.30;;;;;;4999729;28;20030;-68
2021/06/15 07:00:52;;;;;;;7.30;5.55;;;19.80;65.90;;;;;;5001156;28;20041;-68
2021/06/15 07:03:17;;;;;;;9.48;5.75;;;20.00;65.50;;;;;;4994828;28;20608;-67
2021/06/15 07:05:43;;;;;;;6.57;5.97;;;20.00;65.50;;;;;;4997215;28;20168;-68
2021/06/15 07:08:09;;;;;;;5.68;5.18;;;20.10;64.80;;;;;;4999285;28;20054;-68
2021/06/15 07:10:35;;;;;;;6.82;5.90;;;20.20;64.60;;;;;;4995838;28;20042;-68
2021/06/15 07:13:02;;;;;;;7.65;5.90;;;20.30;63.60;;;;;;5004012;28;20038;-68
2021/06/15 07:15:29;;;;;;;7.00;5.63;;;20.40;62.90;;;;;;4995185;28;20034;-68
2021/06/15 07:17:54;;;;;;;6.75;5.60;;;20.40;62.20;;;;;;5000289;28;20393;-67
2021/06/15 07:20:20;;;;;;;7.45;5.07;;;20.50;60.60;;;;;;4998843;28;20106;-67
2021/06/15 07:22:45;;;;;;;8.80;5.30;;;20.60;61.20;;;;;;4998409;28;20033;-67
2021/06/15 07:25:12;;;;;;;9.43;5.13;;;20.60;60.80;;;;;;4996186;28;20480;-68
2021/06/15 07:27:37;;;;;;;6.63;5.93;;;20.70;60.30;;;;;;4996922;28;20041;-68
2021/06/15 07:30:05;;;;;;;7.25;6.00;;;20.80;60.50;;;;;;4999510;28;20421;-68
2021/06/15 07:32:31;;;;;;;6.05;5.45;;;20.80;60.50;;;;;;5005365;28;20038;-67
2021/06/15 07:34:56;;;;;;;5.85;5.25;;;20.90;60.60;;;;;;4997923;28;20165;-68
2021/06/15 07:37:22;;;;;;;7.25;5.05;;;21.00;60.60;;;;;;4997827;28;20038;-68
2021/06/15 07:39:48;;;;;;;8.18;4.90;;;21.10;60.20;;;;;;4996948;28;20105;-68
2021/06/15 07:42:14;;;;;;;6.55;4.43;;;21.20;59.60;;;;;;4997672;28;20038;-67
2021/06/15 07:44:39;;;;;;;5.80;4.43;;;21.30;59.50;;;;;;4998058;28;20093;-67
2021/06/15 07:47:05;;;;;;;8.00;4.75;;;21.30;59.30;;;;;;4998357;28;20087;-68
2021/06/15 07:49:31;;;;;;;8.98;4.78;;;21.40;58.80;;;;;;4998451;28;20449;-68
2021/06/15 07:51:57;;;;;;;6.05;4.50;;;21.60;58.40;;;;;;4999186;28;20397;-68
2021/06/15 07:54:23;;;;;;;8.50;4.72;;;21.70;58.50;;;;;;4994975;28;20084;-67
2021/06/15 07:56:49;;;;;;;6.05;4.25;;;21.70;58.10;;;;;;4998457;28;20034;-68
2021/06/15 07:59:14;;;;;;;6.05;4.93;;;21.90;57.90;;;;;;4998879;28;20073;-68
2021/06/15 08:01:40;;;;;;;9.35;5.07;;;22.10;58.20;;;;;;4997938;28;20454;-68
2021/06/15 08:04:07;;;;;;;9.23;5.20;;;22.10;58.00;;;;;;4998549;28;20509;-68
2021/06/15 08:06:34;;;;;;;6.07;4.65;;;22.20;57.90;;;;;;4998759;28;20026;-68
2021/06/15 08:09:00;;;;;;;6.32;4.75;;;22.40;57.40;;;;;;4999958;28;20192;-68
2021/06/15 08:11:25;;;;;;;5.40;4.85;;;22.50;57.10;;;;;;4991142;28;20565;-68
2021/06/15 08:13:51;;;;;;;7.43;5.20;;;22.70;57.00;;;;;;4996192;28;20117;-68
2021/06/15 08:16:16;;;;;;;8.35;4.80;;;22.80;57.20;;;;;;4998205;28;20395;-68
2021/06/15 08:18:42;;;;;;;4.15;3.75;;;22.90;56.90;;;;;;4998951;28;20060;-68
2021/06/15 08:21:08;;;;;;;5.05;3.75;;;23.10;55.90;;;;;;5003455;28;20040;-68
2021/06/15 08:23:33;;;;;;;4.10;3.45;;;23.20;55.90;;;;;;4996987;28;20548;-68
2021/06/15 08:25:59;;;;;;;9.82;4.28;;;23.30;55.00;;;;;;5000512;28;20038;-67
2021/06/15 08:28:25;;;;;;;4.88;3.80;;;23.40;54.90;;;;;;4994167;28;20031;-68
2021/06/15 08:30:51;;;;;;;4.68;3.88;;;23.60;54.10;;;;;;4998318;28;20522;-68
2021/06/15 08:33:17;;;;;;;5.07;4.10;;;23.80;54.20;;;;;;4997985;28;20116;-67
2021/06/15 08:35:44;;;;;;;4.88;3.72;;;23.90;53.70;;;;;;4997638;28;20038;-68
2021/06/15 08:38:09;;;;;;;6.35;3.83;;;24.00;53.80;;;;;;4996464;28;20048;-68
2021/06/15 08:40:35;;;;;;;6.43;3.22;;;24.20;53.20;;;;;;4998297;28;20026;-67
2021/06/15 08:43:01;;;;;;;5.55;3.10;;;24.30;53.10;;;;;;4997093;28;20044;-68
2021/06/15 08:45:27;;;;;;;4.15;2.80;;;24.40;52.00;;;;;;4995564;28;20096;-68
2021/06/15 08:47:54;;;;;;;4.28;3.15;;;24.50;52.80;;;;;;4997723;28;20064;-68
2021/06/15 08:50:23;;;;;;;3.72;2.42;;;24.60;51.50;;;;;;4998071;28;20062;-68
2021/06/15 08:52:51;;;;;;;7.53;3.75;;;24.80;51.70;;;;;;4996900;28;20056;-68
2021/06/15 08:55:17;;;;;;;4.80;3.90;;;24.90;51.60;;;;;;4998007;28;20540;-68
2021/06/15 08:57:49;;;;;;;5.47;3.65;;;25.00;51.00;;;;;;4997062;28;20042;-68
2021/06/15 09:00:15;;;;;;;4.53;3.15;;;25.20;49.40;;;;;;4995559;28;20089;-68
2021/06/15 09:02:45;;;;;;;4.50;3.05;;;25.30;50.00;;;;;;4998319;28;20112;-68
2021/06/15 09:05:17;;;;;;;3.83;3.00;;;25.40;49.80;;;;;;4997083;28;20044;-68
2021/06/15 09:08:04;;;;;;;4.00;2.60;;;25.50;49.90;;;;;;4998720;28;20030;-68
2021/06/15 09:10:39;;;;;;;4.63;2.90;;;25.70;49.10;;;;;;4994178;28;20109;-68
2021/06/15 09:13:06;;;;;;;;;;;25.80;48.50;;;;;;4998484;28;20084;-68
2021/06/15 09:15:32;;;;;;;6.40;2.45;;;25.90;49.40;;;;;;4997459;28;20040;-69
2021/06/15 09:17:59;;;;;;;2.97;2.50;;;26.00;49.50;;;;;;4997673;28;20494;-68
2021/06/15 09:20:31;;;;;;;5.57;1.98;;;26.10;49.00;;;;;;4996754;28;20117;-68
2021/06/15 09:23:11;;;;;;;2.30;1.77;;;26.20;48.50;;;;;;4995928;28;20049;-68
2021/06/15 09:25:37;;;;;;;20.13;2.67;;;26.30;46.20;;;;;;4998589;28;20041;-68
2021/06/15 09:28:20;;;;;;;4.00;1.77;;;26.50;46.50;;;;;;5003452;28;20038;-68
2021/06/15 09:30:59;;;;;;;5.13;1.65;;;26.60;43.90;;;;;;4996811;28;20035;-68
2021/06/15 09:33:44;;;;;;;3.78;1.60;;;26.80;44.60;;;;;;4997797;28;20039;-68
2021/06/15 09:36:13;;;;;;;3.45;1.98;;;26.90;44.40;;;;;;4993224;28;20514;-69
2021/06/15 09:38:53;;;;;;;2.75;1.52;;;27.10;44.10;;;;;;4994136;28;20034;-69
2021/06/15 09:41:43;;;;;;;3.75;1.90;;;27.10;43.50;;;;;;4999194;28;20042;-69
2021/06/15 09:44:25;;;;;;;3.20;1.55;;;27.30;41.80;;;;;;4996964;28;20034;-69
2021/06/15 09:46:55;;;;;;;4.85;1.70;;;27.30;40.80;;;;;;4998154;28;20030;-69
2021/06/15 09:49:38;;;;;;;6.43;2.05;;;27.30;42.30;;;;;;5000764;28;20057;-68
2021/06/15 09:52:13;;;;;;;2.35;1.80;;;27.30;42.50;;;;;;4998052;28;20509;-68
2021/06/15 09:54:52;;;;;;;;;;;27.40;42.30;;;;;;5000994;28;20066;-69
2021/06/15 09:57:24;;;;;;;1.80;1.42;;;27.50;42.40;;;;;;5000685;28;19963;-68
2021/06/15 09:59:59;;;;;;;3.53;1.90;;;27.50;43.60;;;;;;5001624;28;20604;-68
2021/06/15 10:02:25;;;;;;;2.22;1.60;;;27.50;41.40;;;;;;4999234;28;20037;-69
2021/06/15 10:04:51;;;;;;;2.25;1.50;;;27.50;42.50;;;;;;5003447;28;20417;-69
2021/06/15 10:07:34;;;;;;;2.08;1.63;;;27.60;43.20;;;;;;4999222;28;20397;-69
2021/06/15 10:10:00;;;;;;;3.42;1.77;;;27.60;39.60;;;;;;5007161;28;20088;-69
2021/06/15 10:12:26;;;;;;;2.55;1.50;;;27.70;40.60;;;;;;4999469;28;20493;-69
2021/06/15 10:14:55;;;;;;;4.13;1.98;;;27.70;41.30;;;;;;4999765;28;20518;-69
2021/06/15 10:17:22;;;;;;;2.67;1.58;;;27.70;41.70;;;;;;5001180;28;20620;-69
2021/06/15 10:19:48;;;;;;;2.47;1.42;;;27.70;40.20;;;;;;5000029;28;20042;-68
2021/06/15 10:22:14;;;;;;;1.50;1.20;;;27.80;40.20;;;;;;5005907;28;20947;-68
2021/06/15 10:24:40;;;;;;;2.92;1.40;;;27.80;39.90;;;;;;4995317;28;20130;-69
2021/06/15 10:27:08;;;;;;;2.28;1.30;;;27.80;39.90;;;;;;4999497;28;20500;-69
2021/06/15 10:29:36;;;;;;;2.22;1.40;;;27.80;40.20;;;;;;5001089;28;20091;-68
2021/06/15 10:32:31;;;;;;;2.40;1.33;;;27.90;41.10;;;;;;4998666;28;20042;-69
2021/06/15 10:35:04;;;;;;;2.92;1.55;;;27.90;40.60;;;;;;4984405;28;20635;-68
2021/06/15 10:37:33;;;;;;;1.80;1.35;;;28.00;40.50;;;;;;4999253;28;20092;-69
2021/06/15 10:40:05;;;;;;;2.10;1.20;;;28.10;40.40;;;;;;4997732;28;20064;-69
2021/06/15 10:42:31;;;;;;;1.90;1.20;;;28.20;40.10;;;;;;5000076;28;20058;-69
2021/06/15 10:45:16;;;;;;;1.95;1.17;;;28.40;40.10;;;;;;4996551;28;20430;-68
2021/06/15 10:48:08;;;;;;;1.38;1.00;;;28.50;37.90;;;;;;4997068;28;20040;-69
2021/06/15 10:50:37;;;;;;;1.33;1.00;;;28.60;38.10;;;;;;4998525;28;20031;-69
2021/06/15 10:53:09;;;;;;;1.10;1.02;;;28.70;38.00;;;;;;5005208;28;20632;-69
2021/06/15 10:56:00;;;;;;;1.13;0.88;;;28.70;38.60;;;;;;4995244;28;20098;-69
2021/06/15 10:58:31;;;;;;;1.38;0.85;;;28.70;37.40;;;;;;4999514;28;20042;-69
2021/06/15 11:01:16;;;;;;;1.92;1.20;;;28.80;36.90;;;;;;4998347;28;20065;-68
2021/06/15 11:03:50;;;;;;;1.65;1.10;;;28.80;36.70;;;;;;4998602;28;20505;-69
2021/06/15 11:06:17;;;;;;;1.13;1.00;;;28.80;37.40;;;;;;4998053;28;20058;-68
2021/06/15 11:08:43;;;;;;;1.58;0.93;;;28.80;37.80;;;;;;5000373;28;20036;-69
2021/06/15 11:11:19;;;;;;;2.45;1.00;;;28.90;38.00;;;;;;4995026;28;20328;-68
2021/06/15 11:13:54;;;;;;;1.85;1.00;;;29.00;36.90;;;;;;5005220;28;20068;-69
2021/06/15 11:16:19;;;;;;;;;;;29.00;36.10;;;;;;4999336;28;20468;-69
2021/06/15 11:18:45;;;;;;;1.95;0.80;;;29.10;36.10;;;;;;4998315;28;19917;-69
2021/06/15 11:21:24;;;;;;;2.35;0.82;;;29.00;36.80;;;;;;4998068;28;20058;-69
2021/06/15 11:23:49;;;;;;;2.58;1.17;;;29.10;37.30;;;;;;4997608;28;20034;-69
2021/06/15 11:26:16;;;;;;;5.35;1.00;;;29.10;37.30;;;;;;5003491;28;20033;-69
2021/06/15 11:28:44;;;;;;;1.23;0.73;;;29.20;37.70;;;;;;5000814;28;20041;-69
2021/06/15 11:31:20;;;;;;;1.35;0.90;;;29.30;37.50;;;;;;4999258;28;20042;-69
2021/06/15 11:34:01;;;;;;;1.25;0.90;;;29.30;36.50;;;;;;5003754;28;20157;-69
2021/06/15 11:36:45;;;;;;;1.13;0.80;;;29.40;36.00;;;;;;4997048;28;20033;-69
2021/06/15 11:39:23;;;;;;;3.50;0.90;;;29.50;36.10;;;;;;4998876;28;20528;-69
2021/06/15 11:42:16;;;;;;;2.63;1.00;;;29.50;36.10;;;;;;4997110;28;20290;-69
2021/06/15 11:45:07;;;;;;;1.40;0.90;;;29.60;35.70;;;;;;4996101;28;20422;-69
2021/06/15 11:47:32;;;;;;;1.35;0.98;;;29.60;36.10;;;;;;4998520;28;20415;-69
2021/06/15 11:50:28;;;;;;;1.30;0.90;;;29.60;36.80;;;;;;4998936;28;20520;-69
2021/06/15 11:53:16;;;;;;;1.65;0.98;;;29.70;36.30;;;;;;4994523;28;20035;-69
2021/06/15 11:56:09;;;;;;;3.00;1.20;;;29.70;35.90;;;;;;4997261;28;20101;-69
2021/06/15 11:58:37;;;;;;;2.00;1.15;;;29.70;35.50;;;;;;4997654;28;20112;-69
2021/06/15 12:01:10;;;;;;;2.08;1.00;;;29.70;36.00;;;;;;4995118;28;20042;-70
2021/06/15 12:03:44;;;;;;;2.05;0.95;;;29.70;35.20;;;;;;4999115;28;20037;-69
2021/06/15 12:06:11;;;;;;;0.90;0.90;;;29.70;36.20;;;;;;4995225;28;20247;-69
2021/06/15 12:08:39;;;;;;;1.90;1.05;;;29.70;36.30;;;;;;4996470;28;20037;-70
2021/06/15 12:11:09;;;;;;;2.28;0.90;;;29.80;35.70;;;;;;5007630;28;20037;-69
2021/06/15 12:13:36;;;;;;;1.33;1.00;;;29.80;35.60;;;;;;4995249;28;20115;-69
2021/06/15 12:16:18;;;;;;;0.65;0.60;;;29.80;35.30;;;;;;5010184;28;20157;-69
2021/06/15 12:18:48;;;;;;;0.70;0.70;;;29.80;35.00;;;;;;4997841;28;20098;-70
2021/06/15 12:21:24;;;;;;;0.68;0.40;;;29.80;34.70;;;;;;4996827;28;20112;-69
2021/06/15 12:23:54;;;;;;;0.60;0.60;;;29.90;33.20;;;;;;4997040;28;20085;-69
2021/06/15 12:26:43;;;;;;;2.40;0.55;;;29.90;33.60;;;;;;4996628;28;20548;-69
2021/06/15 12:29:18;;;;;;;1.33;0.50;;;30.00;32.80;;;;;;5002464;28;20456;-69
2021/06/15 12:31:46;;;;;;;1.58;0.60;;;30.00;32.30;;;;;;4997214;28;20494;-70
2021/06/15 12:34:14;;;;;;;0.88;0.50;;;30.10;32.70;;;;;;4995631;28;20034;-69
2021/06/15 12:36:42;;;;;;;1.83;0.50;;;30.10;33.00;;;;;;4994663;28;20052;-70
2021/06/15 12:39:21;;;;;;;0.63;0.50;;;30.20;32.00;;;;;;4997588;28;20038;-69
2021/06/15 12:41:53;;;;;;;0.40;0.30;;;30.20;30.70;;;;;;4997140;28;20026;-69
2021/06/15 12:44:24;;;;;;;0.57;0.52;;;30.30;31.10;;;;;;4997754;28;20077;-69
2021/06/15 12:47:01;;;;;;;0.70;0.50;;;30.30;31.30;;;;;;4995641;28;20030;-69
2021/06/15 12:49:27;;;;;;;0.57;0.50;;;30.30;30.30;;;;;;4997255;28;20192;-69
2021/06/15 12:52:18;;;;;;;1.67;0.60;;;30.30;31.30;;;;;;4997078;28;20113;-70
2021/06/15 12:54:46;;;;;;;0.50;0.40;;;30.20;31.50;;;;;;4993955;28;20042;-69
2021/06/15 12:57:18;;;;;;;1.35;0.70;;;30.20;32.80;;;;;;4997982;28;20568;-69
2021/06/15 12:59:57;;;;;;;0.95;0.60;;;30.10;32.30;;;;;;4998747;28;20497;-69
2021/06/15 13:02:24;;;;;;;1.35;0.65;;;30.10;31.90;;;;;;4997375;28;20045;-69
2021/06/15 13:04:53;;;;;;;1.60;0.70;;;30.10;32.70;;;;;;4999996;28;20050;-69
2021/06/15 13:07:20;;;;;;;1.42;0.77;;;30.10;32.60;;;;;;4996208;28;20036;-69